sensor_id;sensor_type;location;lat;lon;timestamp;P1;durP1;ratioP1;P2;durP2;ratioP2
47713;SDS011;33475;46.614;13.888;2023-06-14T00:00:19;4.13;;;3.65;;
47713;SDS011;33475;46.614;13.888;2023-06-14T00:02:46;4.57;;;4.18;;
47713;SDS011;33475;46.614;13.888;2023-06-14T00:05:12;7.28;;;4.38;;
47713;SDS011;33475;46.614;13.888;2023-06-14T00:07:40;4.35;;;4.05;;
47713;SDS011;33475;46.614;13.888;2023-06-14T00:10:07;5.30;;;4.00;;
47713;SDS011;33475;46.614;13.888;2023-06-14T00:12:34;5.30;;;4.80;;
47713;SDS011;33475;46.614;13.888;2023-06-14T00:15:00;4.38;;;3.97;;
47713;SDS011;33475;46.614;13.888;2023-06-14T00:17:27;5.05;;;4.55;;
47713;SDS011;33475;46.614;13.888;2023-06-14T00:19:57;5.00;;;4.60;;
47713;SDS011;33475;46.614;13.888;2023-06-14T00:22:23;6.40;;;4.03;;
47713;SDS011;33475;46.614;13.888;2023-06-14T00:24:50;4.93;;;4.53;;
47713;SDS011;33475;46.614;13.888;2023-06-14T00:27:16;6.28;;;4.25;;
47713;SDS011;33475;46.614;13.888;2023-06-14T00:29:42;5.85;;;4.78;;
47713;SDS011;33475;46.614;13.888;2023-06-14T00:32:08;6.25;;;4.38;;
47713;SDS011;33475;46.614;13.888;2023-06-14T00:34:35;5.63;;;4.15;;
47713;SDS011;33475;46.614;13.888;2023-06-14T00:37:01;3.88;;;3.40;;
47713;SDS011;33475;46.614;13.888;2023-06-14T00:39:27;6.28;;;3.78;;
47713;SDS011;33475;46.614;13.888;2023-06-14T00:41:53;5.72;;;4.22;;
47713;SDS011;33475;46.614;13.888;2023-06-14T00:44:19;7.90;;;3.67;;
47713;SDS011;33475;46.614;13.888;2023-06-14T00:46:46;5.05;;;3.13;;
47713;SDS011;33475;46.614;13.888;2023-06-14T00:49:16;6.15;;;2.90;;
47713;SDS011;33475;46.614;13.888;2023-06-14T00:51:43;5.70;;;2.88;;
47713;SDS011;33475;46.614;13.888;2023-06-14T00:54:10;5.45;;;2.50;;
47713;SDS011;33475;46.614;13.888;2023-06-14T00:56:36;3.15;;;2.85;;
47713;SDS011;33475;46.614;13.888;2023-06-14T00:59:03;3.08;;;2.78;;
47713;SDS011;33475;46.614;13.888;2023-06-14T01:01:30;3.90;;;3.03;;
47713;SDS011;33475;46.614;13.888;2023-06-14T01:03:59;4.22;;;3.40;;
47713;SDS011;33475;46.614;13.888;2023-06-14T01:11:24;7.15;;;4.50;;
47713;SDS011;33475;46.614;13.888;2023-06-14T01:13:52;6.13;;;4.80;;
47713;SDS011;33475;46.614;13.888;2023-06-14T01:16:19;7.00;;;4.63;;
47713;SDS011;33475;46.614;13.888;2023-06-14T01:18:46;5.35;;;4.63;;
47713;SDS011;33475;46.614;13.888;2023-06-14T01:21:20;4.90;;;4.47;;
47713;SDS011;33475;46.614;13.888;2023-06-14T01:23:47;5.13;;;4.63;;
47713;SDS011;33475;46.614;13.888;2023-06-14T01:26:21;5.00;;;4.50;;
47713;SDS011;33475;46.614;13.888;2023-06-14T01:28:48;5.55;;;5.05;;
47713;SDS011;33475;46.614;13.888;2023-06-14T01:31:21;6.05;;;4.70;;
47713;SDS011;33475;46.614;13.888;2023-06-14T01:33:48;11.95;;;4.82;;
47713;SDS011;33475;46.614;13.888;2023-06-14T01:36:16;6.80;;;5.53;;
47713;SDS011;33475;46.614;13.888;2023-06-14T01:38:43;6.47;;;5.80;;
47713;SDS011;33475;46.614;13.888;2023-06-14T01:41:10;6.50;;;5.97;;
47713;SDS011;33475;46.614;13.888;2023-06-14T01:43:36;6.97;;;6.35;;
47713;SDS011;33475;46.614;13.888;2023-06-14T01:46:03;7.68;;;5.80;;
47713;SDS011;33475;46.614;13.888;2023-06-14T01:48:30;9.80;;;6.25;;
47713;SDS011;33475;46.614;13.888;2023-06-14T01:50:57;6.03;;;5.53;;
47713;SDS011;33475;46.614;13.888;2023-06-14T01:53:23;5.70;;;5.20;;
47713;SDS011;33475;46.614;13.888;2023-06-14T01:55:50;6.88;;;6.25;;
47713;SDS011;33475;46.614;13.888;2023-06-14T01:58:19;5.20;;;4.80;;
47713;SDS011;33475;46.614;13.888;2023-06-14T02:00:46;7.72;;;6.43;;
47713;SDS011;33475;46.614;13.888;2023-06-14T02:03:12;7.63;;;6.45;;
47713;SDS011;33475;46.614;13.888;2023-06-14T02:05:40;6.82;;;6.22;;
47713;SDS011;33475;46.614;13.888;2023-06-14T02:08:06;7.00;;;6.28;;
47713;SDS011;33475;46.614;13.888;2023-06-14T02:10:33;8.50;;;6.20;;
47713;SDS011;33475;46.614;13.888;2023-06-14T02:12:59;8.30;;;6.28;;
47713;SDS011;33475;46.614;13.888;2023-06-14T02:15:25;7.05;;;6.45;;
47713;SDS011;33475;46.614;13.888;2023-06-14T02:17:52;6.75;;;6.07;;
47713;SDS011;33475;46.614;13.888;2023-06-14T02:20:19;7.30;;;6.60;;
47713;SDS011;33475;46.614;13.888;2023-06-14T02:22:45;6.65;;;6.07;;
47713;SDS011;33475;46.614;13.888;2023-06-14T02:25:12;6.45;;;5.95;;
47713;SDS011;33475;46.614;13.888;2023-06-14T02:27:38;6.22;;;5.72;;
47713;SDS011;33475;46.614;13.888;2023-06-14T02:30:05;7.78;;;5.88;;
47713;SDS011;33475;46.614;13.888;2023-06-14T02:32:32;7.70;;;5.72;;
47713;SDS011;33475;46.614;13.888;2023-06-14T02:35:02;9.88;;;5.95;;
47713;SDS011;33475;46.614;13.888;2023-06-14T02:37:28;6.35;;;5.78;;
47713;SDS011;33475;46.614;13.888;2023-06-14T02:39:55;6.50;;;5.47;;
47713;SDS011;33475;46.614;13.888;2023-06-14T02:42:21;7.75;;;6.00;;
47713;SDS011;33475;46.614;13.888;2023-06-14T02:44:47;6.97;;;6.28;;
47713;SDS011;33475;46.614;13.888;2023-06-14T02:47:19;6.32;;;5.72;;
47713;SDS011;33475;46.614;13.888;2023-06-14T02:49:45;6.25;;;5.65;;
47713;SDS011;33475;46.614;13.888;2023-06-14T02:52:12;6.72;;;6.13;;
47713;SDS011;33475;46.614;13.888;2023-06-14T02:54:38;6.45;;;5.80;;
47713;SDS011;33475;46.614;13.888;2023-06-14T02:57:05;5.70;;;5.05;;
47713;SDS011;33475;46.614;13.888;2023-06-14T02:59:33;6.28;;;5.70;;
47713;SDS011;33475;46.614;13.888;2023-06-14T03:01:59;7.65;;;5.65;;
47713;SDS011;33475;46.614;13.888;2023-06-14T03:04:25;7.32;;;6.63;;
47713;SDS011;33475;46.614;13.888;2023-06-14T03:06:52;6.57;;;5.97;;
47713;SDS011;33475;46.614;13.888;2023-06-14T03:09:19;5.85;;;5.35;;
47713;SDS011;33475;46.614;13.888;2023-06-14T03:11:45;6.88;;;6.28;;
47713;SDS011;33475;46.614;13.888;2023-06-14T03:14:11;6.55;;;6.00;;
47713;SDS011;33475;46.614;13.888;2023-06-14T03:16:38;6.47;;;5.88;;
47713;SDS011;33475;46.614;13.888;2023-06-14T03:19:06;6.75;;;6.15;;
47713;SDS011;33475;46.614;13.888;2023-06-14T03:21:32;6.70;;;5.90;;
47713;SDS011;33475;46.614;13.888;2023-06-14T03:23:59;6.72;;;6.13;;
47713;SDS011;33475;46.614;13.888;2023-06-14T03:26:27;7.22;;;6.60;;
47713;SDS011;33475;46.614;13.888;2023-06-14T03:28:53;8.43;;;5.75;;
47713;SDS011;33475;46.614;13.888;2023-06-14T03:31:20;6.53;;;6.03;;
47713;SDS011;33475;46.614;13.888;2023-06-14T03:33:46;7.25;;;5.72;;
47713;SDS011;33475;46.614;13.888;2023-06-14T03:36:12;6.32;;;5.72;;
47713;SDS011;33475;46.614;13.888;2023-06-14T03:38:38;6.25;;;5.60;;
47713;SDS011;33475;46.614;13.888;2023-06-14T03:41:05;5.78;;;5.18;;
47713;SDS011;33475;46.614;13.888;2023-06-14T03:43:31;5.55;;;5.05;;
47713;SDS011;33475;46.614;13.888;2023-06-14T03:45:58;5.85;;;5.35;;
47713;SDS011;33475;46.614;13.888;2023-06-14T03:48:25;6.72;;;5.68;;
47713;SDS011;33475;46.614;13.888;2023-06-14T03:50:51;5.90;;;5.30;;
47713;SDS011;33475;46.614;13.888;2023-06-14T03:53:17;5.75;;;5.30;;
47713;SDS011;33475;46.614;13.888;2023-06-14T03:55:45;5.85;;;5.35;;
47713;SDS011;33475;46.614;13.888;2023-06-14T03:58:11;6.78;;;6.18;;
47713;SDS011;33475;46.614;13.888;2023-06-14T04:00:38;6.07;;;5.57;;
47713;SDS011;33475;46.614;13.888;2023-06-14T04:03:05;6.25;;;5.65;;
47713;SDS011;33475;46.614;13.888;2023-06-14T04:05:31;6.07;;;5.30;;
47713;SDS011;33475;46.614;13.888;2023-06-14T04:07:57;9.38;;;4.85;;
47713;SDS011;33475;46.614;13.888;2023-06-14T04:10:26;7.90;;;5.47;;
47713;SDS011;33475;46.614;13.888;2023-06-14T04:12:52;6.47;;;5.40;;
47713;SDS011;33475;46.614;13.888;2023-06-14T04:15:19;7.78;;;5.72;;
47713;SDS011;33475;46.614;13.888;2023-06-14T04:17:45;6.88;;;5.70;;
47713;SDS011;33475;46.614;13.888;2023-06-14T04:20:11;5.03;;;4.13;;
47713;SDS011;33475;46.614;13.888;2023-06-14T04:22:37;6.72;;;6.13;;
47713;SDS011;33475;46.614;13.888;2023-06-14T04:25:03;6.03;;;5.53;;
47713;SDS011;33475;46.614;13.888;2023-06-14T04:27:31;7.35;;;5.65;;
47713;SDS011;33475;46.614;13.888;2023-06-14T04:30:00;6.53;;;5.93;;
47713;SDS011;33475;46.614;13.888;2023-06-14T04:32:27;5.95;;;5.45;;
47713;SDS011;33475;46.614;13.888;2023-06-14T04:34:57;6.13;;;5.53;;
47713;SDS011;33475;46.614;13.888;2023-06-14T04:37:25;7.43;;;5.97;;
47713;SDS011;33475;46.614;13.888;2023-06-14T04:39:54;8.90;;;5.38;;
47713;SDS011;33475;46.614;13.888;2023-06-14T04:42:21;5.82;;;5.35;;
47713;SDS011;33475;46.614;13.888;2023-06-14T04:44:50;6.55;;;5.95;;
47713;SDS011;33475;46.614;13.888;2023-06-14T04:47:20;10.55;;;9.52;;
47713;SDS011;33475;46.614;13.888;2023-06-14T04:49:46;13.48;;;5.07;;
47713;SDS011;33475;46.614;13.888;2023-06-14T04:52:12;8.70;;;6.65;;
47713;SDS011;33475;46.614;13.888;2023-06-14T04:54:39;5.88;;;5.38;;
47713;SDS011;33475;46.614;13.888;2023-06-14T04:57:08;5.15;;;4.65;;
47713;SDS011;33475;46.614;13.888;2023-06-14T04:59:39;7.93;;;5.28;;
47713;SDS011;33475;46.614;13.888;2023-06-14T05:02:05;4.63;;;4.13;;
47713;SDS011;33475;46.614;13.888;2023-06-14T05:04:32;5.88;;;5.28;;
47713;SDS011;33475;46.614;13.888;2023-06-14T05:06:59;7.28;;;6.55;;
47713;SDS011;33475;46.614;13.888;2023-06-14T05:09:26;5.32;;;4.72;;
47713;SDS011;33475;46.614;13.888;2023-06-14T05:11:52;4.70;;;4.30;;
47713;SDS011;33475;46.614;13.888;2023-06-14T05:14:18;7.38;;;4.10;;
47713;SDS011;33475;46.614;13.888;2023-06-14T05:16:45;5.53;;;4.18;;
47713;SDS011;33475;46.614;13.888;2023-06-14T05:19:13;8.25;;;4.60;;
47713;SDS011;33475;46.614;13.888;2023-06-14T05:21:39;4.43;;;4.03;;
47713;SDS011;33475;46.614;13.888;2023-06-14T05:24:06;5.90;;;4.65;;
47713;SDS011;33475;46.614;13.888;2023-06-14T05:26:33;5.60;;;4.70;;
47713;SDS011;33475;46.614;13.888;2023-06-14T05:29:00;5.25;;;4.85;;
47713;SDS011;33475;46.614;13.888;2023-06-14T05:31:27;5.60;;;3.63;;
47713;SDS011;33475;46.614;13.888;2023-06-14T05:33:53;4.18;;;3.78;;
47713;SDS011;33475;46.614;13.888;2023-06-14T05:36:20;5.20;;;3.95;;
47713;SDS011;33475;46.614;13.888;2023-06-14T05:38:47;4.57;;;4.18;;
47713;SDS011;33475;46.614;13.888;2023-06-14T05:41:13;3.80;;;3.50;;
47713;SDS011;33475;46.614;13.888;2023-06-14T05:43:39;4.60;;;4.00;;
47713;SDS011;33475;46.614;13.888;2023-06-14T05:46:06;4.57;;;3.85;;
47713;SDS011;33475;46.614;13.888;2023-06-14T05:48:32;4.05;;;3.55;;
47713;SDS011;33475;46.614;13.888;2023-06-14T05:50:58;6.90;;;5.40;;
47713;SDS011;33475;46.614;13.888;2023-06-14T05:53:25;6.70;;;4.45;;
47713;SDS011;33475;46.614;13.888;2023-06-14T05:55:51;9.30;;;4.20;;
47713;SDS011;33475;46.614;13.888;2023-06-14T05:58:20;7.03;;;3.70;;
47713;SDS011;33475;46.614;13.888;2023-06-14T06:00:46;6.93;;;4.45;;
47713;SDS011;33475;46.614;13.888;2023-06-14T06:03:12;5.55;;;4.95;;
47713;SDS011;33475;46.614;13.888;2023-06-14T06:05:38;11.07;;;5.38;;
47713;SDS011;33475;46.614;13.888;2023-06-14T06:08:05;6.63;;;4.10;;
47713;SDS011;33475;46.614;13.888;2023-06-14T06:10:31;3.90;;;3.58;;
47713;SDS011;33475;46.614;13.888;2023-06-14T06:12:57;4.38;;;3.55;;
47713;SDS011;33475;46.614;13.888;2023-06-14T06:15:23;3.67;;;3.38;;
47713;SDS011;33475;46.614;13.888;2023-06-14T06:17:49;5.88;;;4.20;;
47713;SDS011;33475;46.614;13.888;2023-06-14T06:20:16;3.72;;;3.42;;
47713;SDS011;33475;46.614;13.888;2023-06-14T06:22:42;5.80;;;5.30;;
47713;SDS011;33475;46.614;13.888;2023-06-14T06:25:09;5.35;;;4.20;;
47713;SDS011;33475;46.614;13.888;2023-06-14T06:27:35;4.68;;;4.28;;
47713;SDS011;33475;46.614;13.888;2023-06-14T06:30:03;7.07;;;6.38;;
47713;SDS011;33475;46.614;13.888;2023-06-14T06:32:30;4.82;;;4.07;;
47713;SDS011;33475;46.614;13.888;2023-06-14T06:34:56;4.68;;;4.03;;
47713;SDS011;33475;46.614;13.888;2023-06-14T06:37:24;4.63;;;4.22;;
47713;SDS011;33475;46.614;13.888;2023-06-14T06:39:51;7.07;;;5.28;;
47713;SDS011;33475;46.614;13.888;2023-06-14T06:42:17;14.90;;;5.90;;
47713;SDS011;33475;46.614;13.888;2023-06-14T06:44:43;4.35;;;3.95;;
47713;SDS011;33475;46.614;13.888;2023-06-14T06:47:09;7.13;;;4.57;;
47713;SDS011;33475;46.614;13.888;2023-06-14T06:49:36;4.07;;;3.30;;
47713;SDS011;33475;46.614;13.888;2023-06-14T06:52:03;4.95;;;3.83;;
47713;SDS011;33475;46.614;13.888;2023-06-14T06:54:30;7.80;;;4.03;;
47713;SDS011;33475;46.614;13.888;2023-06-14T06:56:56;3.63;;;3.30;;
47713;SDS011;33475;46.614;13.888;2023-06-14T06:59:23;6.47;;;4.35;;
47713;SDS011;33475;46.614;13.888;2023-06-14T07:01:49;4.63;;;4.22;;
47713;SDS011;33475;46.614;13.888;2023-06-14T07:04:15;4.95;;;3.88;;
47713;SDS011;33475;46.614;13.888;2023-06-14T07:06:42;4.35;;;3.80;;
47713;SDS011;33475;46.614;13.888;2023-06-14T07:09:08;5.63;;;4.10;;
47713;SDS011;33475;46.614;13.888;2023-06-14T07:11:41;4.25;;;3.67;;
47713;SDS011;33475;46.614;13.888;2023-06-14T07:14:07;3.60;;;3.28;;
47713;SDS011;33475;46.614;13.888;2023-06-14T07:16:33;3.83;;;3.53;;
47713;SDS011;33475;46.614;13.888;2023-06-14T07:18:59;4.68;;;3.45;;
47713;SDS011;33475;46.614;13.888;2023-06-14T07:21:26;4.57;;;3.60;;
47713;SDS011;33475;46.614;13.888;2023-06-14T07:23:52;6.47;;;4.13;;
47713;SDS011;33475;46.614;13.888;2023-06-14T07:26:19;4.45;;;4.07;;
47713;SDS011;33475;46.614;13.888;2023-06-14T07:28:46;4.95;;;4.10;;
47713;SDS011;33475;46.614;13.888;2023-06-14T07:31:12;9.10;;;5.03;;
47713;SDS011;33475;46.614;13.888;2023-06-14T07:33:40;10.48;;;9.30;;
47713;SDS011;33475;46.614;13.888;2023-06-14T07:36:07;5.63;;;3.78;;
47713;SDS011;33475;46.614;13.888;2023-06-14T07:38:34;4.78;;;4.38;;
47713;SDS011;33475;46.614;13.888;2023-06-14T07:41:01;4.60;;;4.10;;
47713;SDS011;33475;46.614;13.888;2023-06-14T07:43:27;3.65;;;3.35;;
47713;SDS011;33475;46.614;13.888;2023-06-14T07:45:54;4.18;;;3.53;;
47713;SDS011;33475;46.614;13.888;2023-06-14T07:48:20;3.63;;;3.33;;
47713;SDS011;33475;46.614;13.888;2023-06-14T07:50:46;4.93;;;4.53;;
47713;SDS011;33475;46.614;13.888;2023-06-14T07:53:13;5.88;;;5.28;;
47713;SDS011;33475;46.614;13.888;2023-06-14T07:55:39;4.68;;;3.63;;
47713;SDS011;33475;46.614;13.888;2023-06-14T07:58:08;3.70;;;3.40;;
47713;SDS011;33475;46.614;13.888;2023-06-14T08:00:34;7.18;;;5.10;;
47713;SDS011;33475;46.614;13.888;2023-06-14T08:03:01;4.05;;;3.65;;
47713;SDS011;33475;46.614;13.888;2023-06-14T08:05:28;4.22;;;3.30;;
47713;SDS011;33475;46.614;13.888;2023-06-14T08:07:54;3.33;;;3.03;;
47713;SDS011;33475;46.614;13.888;2023-06-14T08:10:21;3.85;;;3.05;;
47713;SDS011;33475;46.614;13.888;2023-06-14T08:12:47;4.95;;;3.05;;
47713;SDS011;33475;46.614;13.888;2023-06-14T08:15:16;3.72;;;3.42;;
47713;SDS011;33475;46.614;13.888;2023-06-14T08:17:43;6.40;;;3.55;;
47713;SDS011;33475;46.614;13.888;2023-06-14T08:20:10;4.95;;;3.25;;
47713;SDS011;33475;46.614;13.888;2023-06-14T08:22:36;4.90;;;2.80;;
47713;SDS011;33475;46.614;13.888;2023-06-14T08:25:03;4.07;;;3.17;;
47713;SDS011;33475;46.614;13.888;2023-06-14T08:27:29;4.35;;;3.60;;
47713;SDS011;33475;46.614;13.888;2023-06-14T08:29:56;4.57;;;3.50;;
47713;SDS011;33475;46.614;13.888;2023-06-14T08:32:22;3.42;;;3.10;;
47713;SDS011;33475;46.614;13.888;2023-06-14T08:34:48;3.67;;;3.30;;
47713;SDS011;33475;46.614;13.888;2023-06-14T08:37:14;5.43;;;4.38;;
47713;SDS011;33475;46.614;13.888;2023-06-14T08:39:41;4.15;;;3.22;;
47713;SDS011;33475;46.614;13.888;2023-06-14T08:42:09;10.65;;;3.15;;
47713;SDS011;33475;46.614;13.888;2023-06-14T08:44:36;3.30;;;2.97;;
47713;SDS011;33475;46.614;13.888;2023-06-14T08:47:02;6.03;;;3.60;;
47713;SDS011;33475;46.614;13.888;2023-06-14T08:49:29;7.78;;;3.45;;
47713;SDS011;33475;46.614;13.888;2023-06-14T08:52:00;5.40;;;3.90;;
47713;SDS011;33475;46.614;13.888;2023-06-14T08:54:30;3.25;;;2.92;;
47713;SDS011;33475;46.614;13.888;2023-06-14T08:56:57;4.55;;;3.38;;
47713;SDS011;33475;46.614;13.888;2023-06-14T08:59:27;6.22;;;3.17;;
47713;SDS011;33475;46.614;13.888;2023-06-14T09:01:56;4.45;;;3.08;;
47713;SDS011;33475;46.614;13.888;2023-06-14T09:04:23;5.60;;;3.92;;
47713;SDS011;33475;46.614;13.888;2023-06-14T09:06:55;4.30;;;3.10;;
47713;SDS011;33475;46.614;13.888;2023-06-14T09:09:21;3.17;;;2.85;;
47713;SDS011;33475;46.614;13.888;2023-06-14T09:11:49;5.38;;;3.75;;
47713;SDS011;33475;46.614;13.888;2023-06-14T09:14:17;3.90;;;3.50;;
47713;SDS011;33475;46.614;13.888;2023-06-14T09:16:43;3.38;;;2.95;;
47713;SDS011;33475;46.614;13.888;2023-06-14T09:19:23;4.05;;;2.78;;
47713;SDS011;33475;46.614;13.888;2023-06-14T09:21:49;3.88;;;3.03;;
47713;SDS011;33475;46.614;13.888;2023-06-14T09:24:17;5.55;;;3.22;;
47713;SDS011;33475;46.614;13.888;2023-06-14T09:26:46;4.05;;;3.03;;
47713;SDS011;33475;46.614;13.888;2023-06-14T09:29:13;5.88;;;3.50;;
47713;SDS011;33475;46.614;13.888;2023-06-14T09:31:39;3.35;;;3.00;;
47713;SDS011;33475;46.614;13.888;2023-06-14T09:34:05;6.45;;;3.40;;
47713;SDS011;33475;46.614;13.888;2023-06-14T09:36:32;6.07;;;2.97;;
47713;SDS011;33475;46.614;13.888;2023-06-14T09:38:59;2.80;;;2.60;;
47713;SDS011;33475;46.614;13.888;2023-06-14T09:41:35;2.50;;;2.30;;
47713;SDS011;33475;46.614;13.888;2023-06-14T09:44:02;4.63;;;2.95;;
47713;SDS011;33475;46.614;13.888;2023-06-14T09:46:29;1.55;;;1.45;;
47713;SDS011;33475;46.614;13.888;2023-06-14T09:48:56;3.42;;;2.30;;
47713;SDS011;33475;46.614;13.888;2023-06-14T09:51:23;3.88;;;2.40;;
47713;SDS011;33475;46.614;13.888;2023-06-14T09:53:49;2.90;;;2.70;;
47713;SDS011;33475;46.614;13.888;2023-06-14T09:56:23;3.10;;;2.35;;
47713;SDS011;33475;46.614;13.888;2023-06-14T09:58:54;2.33;;;1.85;;
47713;SDS011;33475;46.614;13.888;2023-06-14T10:01:21;2.80;;;2.47;;
47713;SDS011;33475;46.614;13.888;2023-06-14T10:03:49;2.75;;;2.17;;
47713;SDS011;33475;46.614;13.888;2023-06-14T10:06:16;3.67;;;2.30;;
47713;SDS011;33475;46.614;13.888;2023-06-14T10:08:43;2.70;;;2.50;;
47713;SDS011;33475;46.614;13.888;2023-06-14T10:11:11;3.58;;;2.50;;
47713;SDS011;33475;46.614;13.888;2023-06-14T10:13:38;2.63;;;2.10;;
47713;SDS011;33475;46.614;13.888;2023-06-14T10:16:23;2.53;;;2.30;;
47713;SDS011;33475;46.614;13.888;2023-06-14T10:21:28;3.47;;;2.13;;
47713;SDS011;33475;46.614;13.888;2023-06-14T10:24:00;2.58;;;2.38;;
47713;SDS011;33475;46.614;13.888;2023-06-14T10:26:27;5.57;;;2.22;;
47713;SDS011;33475;46.614;13.888;2023-06-14T10:29:14;3.78;;;2.30;;
47713;SDS011;33475;46.614;13.888;2023-06-14T10:34:07;2.00;;;1.80;;
47713;SDS011;33475;46.614;13.888;2023-06-14T10:36:33;8.55;;;2.17;;
47713;SDS011;33475;46.614;13.888;2023-06-14T10:39:01;3.85;;;2.10;;
47713;SDS011;33475;46.614;13.888;2023-06-14T10:41:30;2.70;;;1.80;;
47713;SDS011;33475;46.614;13.888;2023-06-14T10:47:05;2.03;;;1.88;;
47713;SDS011;33475;46.614;13.888;2023-06-14T10:49:43;3.40;;;2.05;;
47713;SDS011;33475;46.614;13.888;2023-06-14T10:52:17;7.38;;;2.40;;
47713;SDS011;33475;46.614;13.888;2023-06-14T10:55:46;1.98;;;1.83;;
47713;SDS011;33475;46.614;13.888;2023-06-14T10:57:43;2.25;;;2.00;;
47713;SDS011;33475;46.614;13.888;2023-06-14T11:00:11;5.22;;;1.95;;
47713;SDS011;33475;46.614;13.888;2023-06-14T11:05:26;2.80;;;1.98;;
47713;SDS011;33475;46.614;13.888;2023-06-14T11:10:38;2.05;;;1.90;;
47713;SDS011;33475;46.614;13.888;2023-06-14T11:13:06;1.65;;;1.55;;
47713;SDS011;33475;46.614;13.888;2023-06-14T11:15:32;4.07;;;1.90;;
47713;SDS011;33475;46.614;13.888;2023-06-14T11:18:03;2.05;;;1.88;;
47713;SDS011;33475;46.614;13.888;2023-06-14T11:20:30;3.47;;;1.90;;
47713;SDS011;33475;46.614;13.888;2023-06-14T11:22:57;3.97;;;1.55;;
47713;SDS011;33475;46.614;13.888;2023-06-14T11:25:24;1.90;;;1.70;;
47713;SDS011;33475;46.614;13.888;2023-06-14T11:27:51;2.30;;;2.10;;
47713;SDS011;33475;46.614;13.888;2023-06-14T11:30:18;2.00;;;1.70;;
47713;SDS011;33475;46.614;13.888;2023-06-14T11:32:47;1.90;;;1.77;;
47713;SDS011;33475;46.614;13.888;2023-06-14T11:35:14;4.60;;;1.77;;
47713;SDS011;33475;46.614;13.888;2023-06-14T11:37:40;6.93;;;2.17;;
47713;SDS011;33475;46.614;13.888;2023-06-14T11:40:07;3.13;;;2.03;;
47713;SDS011;33475;46.614;13.888;2023-06-14T11:42:35;2.95;;;2.10;;
47713;SDS011;33475;46.614;13.888;2023-06-14T11:45:02;2.10;;;1.73;;
47713;SDS011;33475;46.614;13.888;2023-06-14T11:47:34;1.88;;;1.77;;
47713;SDS011;33475;46.614;13.888;2023-06-14T11:50:01;2.53;;;2.33;;
47713;SDS011;33475;46.614;13.888;2023-06-14T11:52:27;2.20;;;1.70;;
47713;SDS011;33475;46.614;13.888;2023-06-14T11:54:53;3.40;;;1.58;;
47713;SDS011;33475;46.614;13.888;2023-06-14T11:57:20;2.92;;;1.88;;
47713;SDS011;33475;46.614;13.888;2023-06-14T11:59:46;2.30;;;1.63;;
47713;SDS011;33475;46.614;13.888;2023-06-14T12:02:15;5.68;;;1.70;;
47713;SDS011;33475;46.614;13.888;2023-06-14T12:04:42;2.63;;;1.63;;
47713;SDS011;33475;46.614;13.888;2023-06-14T12:07:12;3.03;;;1.70;;
47713;SDS011;33475;46.614;13.888;2023-06-14T12:09:40;3.53;;;1.50;;
47713;SDS011;33475;46.614;13.888;2023-06-14T12:12:09;3.65;;;1.48;;
47713;SDS011;33475;46.614;13.888;2023-06-14T12:14:36;1.67;;;1.50;;
47713;SDS011;33475;46.614;13.888;2023-06-14T12:17:05;2.03;;;1.50;;
47713;SDS011;33475;46.614;13.888;2023-06-14T12:19:32;1.95;;;1.60;;
47713;SDS011;33475;46.614;13.888;2023-06-14T12:22:01;1.85;;;1.50;;
47713;SDS011;33475;46.614;13.888;2023-06-14T12:24:30;1.58;;;1.48;;
47713;SDS011;33475;46.614;13.888;2023-06-14T12:26:59;2.47;;;1.42;;
47713;SDS011;33475;46.614;13.888;2023-06-14T12:29:28;1.60;;;1.48;;
47713;SDS011;33475;46.614;13.888;2023-06-14T12:31:54;1.45;;;1.30;;
47713;SDS011;33475;46.614;13.888;2023-06-14T12:34:28;2.53;;;1.70;;
47713;SDS011;33475;46.614;13.888;2023-06-14T12:36:57;1.75;;;1.65;;
47713;SDS011;33475;46.614;13.888;2023-06-14T12:39:23;2.55;;;1.50;;
47713;SDS011;33475;46.614;13.888;2023-06-14T12:41:49;1.80;;;1.52;;
47713;SDS011;33475;46.614;13.888;2023-06-14T12:44:15;1.67;;;1.45;;
47713;SDS011;33475;46.614;13.888;2023-06-14T12:46:42;2.97;;;1.50;;
47713;SDS011;33475;46.614;13.888;2023-06-14T12:49:12;1.92;;;1.35;;
47713;SDS011;33475;46.614;13.888;2023-06-14T12:51:38;1.88;;;1.50;;
47713;SDS011;33475;46.614;13.888;2023-06-14T12:54:05;1.58;;;1.42;;
47713;SDS011;33475;46.614;13.888;2023-06-14T12:56:32;1.95;;;1.30;;
47713;SDS011;33475;46.614;13.888;2023-06-14T12:58:58;2.58;;;1.10;;
47713;SDS011;33475;46.614;13.888;2023-06-14T13:01:24;2.33;;;1.38;;
47713;SDS011;33475;46.614;13.888;2023-06-14T13:03:51;1.95;;;1.40;;
47713;SDS011;33475;46.614;13.888;2023-06-14T13:06:22;2.40;;;1.45;;
47713;SDS011;33475;46.614;13.888;2023-06-14T13:08:48;2.03;;;1.23;;
47713;SDS011;33475;46.614;13.888;2023-06-14T13:11:15;1.20;;;1.10;;
47713;SDS011;33475;46.614;13.888;2023-06-14T13:13:41;1.92;;;1.83;;
47713;SDS011;33475;46.614;13.888;2023-06-14T13:16:07;2.85;;;2.65;;
47713;SDS011;33475;46.614;13.888;2023-06-14T13:18:34;1.50;;;1.40;;
47713;SDS011;33475;46.614;13.888;2023-06-14T13:21:00;1.95;;;1.30;;
47713;SDS011;33475;46.614;13.888;2023-06-14T13:23:26;1.45;;;1.10;;
47713;SDS011;33475;46.614;13.888;2023-06-14T13:25:52;3.50;;;1.40;;
47713;SDS011;33475;46.614;13.888;2023-06-14T13:28:18;2.30;;;1.30;;
47713;SDS011;33475;46.614;13.888;2023-06-14T13:30:46;4.07;;;1.42;;
47713;SDS011;33475;46.614;13.888;2023-06-14T13:33:12;2.38;;;1.80;;
47713;SDS011;33475;46.614;13.888;2023-06-14T13:35:39;1.95;;;1.67;;
47713;SDS011;33475;46.614;13.888;2023-06-14T13:38:05;1.92;;;1.25;;
47713;SDS011;33475;46.614;13.888;2023-06-14T13:40:31;1.90;;;1.80;;
47713;SDS011;33475;46.614;13.888;2023-06-14T13:42:57;1.92;;;1.77;;
47713;SDS011;33475;46.614;13.888;2023-06-14T13:45:23;1.70;;;1.60;;
47713;SDS011;33475;46.614;13.888;2023-06-14T13:47:49;1.85;;;1.75;;
47713;SDS011;33475;46.614;13.888;2023-06-14T13:50:17;1.30;;;1.20;;
47713;SDS011;33475;46.614;13.888;2023-06-14T13:52:43;4.50;;;2.30;;
47713;SDS011;33475;46.614;13.888;2023-06-14T13:55:09;5.22;;;1.92;;
47713;SDS011;33475;46.614;13.888;2023-06-14T13:57:35;5.18;;;1.50;;
47713;SDS011;33475;46.614;13.888;2023-06-14T14:00:01;1.70;;;1.60;;
47713;SDS011;33475;46.614;13.888;2023-06-14T14:02:28;4.18;;;2.03;;
47713;SDS011;33475;46.614;13.888;2023-06-14T14:04:55;6.28;;;1.60;;
47713;SDS011;33475;46.614;13.888;2023-06-14T14:07:22;1.80;;;1.40;;
47713;SDS011;33475;46.614;13.888;2023-06-14T14:09:48;2.80;;;1.83;;
47713;SDS011;33475;46.614;13.888;2023-06-14T14:12:15;1.70;;;1.60;;
47713;SDS011;33475;46.614;13.888;2023-06-14T14:14:41;1.40;;;1.20;;
47713;SDS011;33475;46.614;13.888;2023-06-14T14:17:07;3.65;;;1.20;;
47713;SDS011;33475;46.614;13.888;2023-06-14T14:19:33;2.72;;;1.17;;
47713;SDS011;33475;46.614;13.888;2023-06-14T14:21:59;1.40;;;1.30;;
47713;SDS011;33475;46.614;13.888;2023-06-14T14:24:26;5.53;;;1.50;;
47713;SDS011;33475;46.614;13.888;2023-06-14T14:26:52;2.28;;;1.70;;
47713;SDS011;33475;46.614;13.888;2023-06-14T14:29:19;1.25;;;1.15;;
47713;SDS011;33475;46.614;13.888;2023-06-14T14:31:45;5.00;;;1.90;;
47713;SDS011;33475;46.614;13.888;2023-06-14T14:34:12;2.03;;;1.23;;
47713;SDS011;33475;46.614;13.888;2023-06-14T14:36:38;2.80;;;1.80;;
47713;SDS011;33475;46.614;13.888;2023-06-14T14:39:07;2.05;;;1.30;;
47713;SDS011;33475;46.614;13.888;2023-06-14T14:41:33;1.48;;;1.17;;
47713;SDS011;33475;46.614;13.888;2023-06-14T14:43:59;2.35;;;1.58;;
47713;SDS011;33475;46.614;13.888;2023-06-14T14:46:26;1.48;;;1.30;;
47713;SDS011;33475;46.614;13.888;2023-06-14T14:48:53;2.92;;;1.45;;
47713;SDS011;33475;46.614;13.888;2023-06-14T14:51:20;2.13;;;1.63;;